Lava Beds National Monument, California
Current Conditions -  °F | °C
As of 12:53 PM on Saturday 25 Oct 2014 (Local Time) from KLMT Reporting Station
Clear Clear  
Wind Chill: 56°   Ceiling: Unl
Heat Index: 56°   Visibility: 10mi
Dew Point: 40°   Wind: 35mph
Humidity: 55%   Direction: 180°S
Pressure: 29.73"   Gusts: 46mph
Location:  41.7207°N, 121.463°W
Report Text: KLMT 251953Z 18030G40KT 10SM CLR 13/04 A2973 RMK AO2 PK WND 18045/1902 SLP043 T01330044
Loading
Personal Weather Stations






























Interactive Weather Map
Tropical Storm Tracking
New forecast layout! Learn more

10-Day Weather Forecast

Advertisements
Track Severe Weather on mobile